createdAt,value
2023-01-18T04:27:19.997Z,99.90
2023-01-18T04:31:22.571Z,99.90
2023-01-18T04:35:25.192Z,99.90
2023-01-18T04:39:28.551Z,99.90
2023-01-18T04:43:33.662Z,99.90
2023-01-18T04:47:39.467Z,99.90
2023-01-18T04:51:45.326Z,99.90
2023-01-18T04:55:47.975Z,99.90
2023-01-18T04:59:53.105Z,99.90
2023-01-18T05:03:55.797Z,99.90
2023-01-18T05:07:58.227Z,99.90
2023-01-18T05:12:00.858Z,99.90
2023-01-18T05:16:06.981Z,99.90
2023-01-18T05:20:11.866Z,99.90
2023-01-18T05:24:14.256Z,99.90
2023-01-18T05:28:16.732Z,99.90
2023-01-18T05:32:21.789Z,99.90
2023-01-18T05:36:24.109Z,99.90
2023-01-18T05:40:26.559Z,99.90
2023-01-18T05:44:29.108Z,99.90
2023-01-18T05:48:34.083Z,99.90
2023-01-18T05:52:36.580Z,99.90
2023-01-18T05:56:39.057Z,99.90
2023-01-18T06:00:41.656Z,99.90
2023-01-18T06:04:46.726Z,99.90
2023-01-18T06:08:49.126Z,99.90
2023-01-18T06:12:51.816Z,99.90
2023-01-18T06:16:54.141Z,99.90
2023-01-18T06:21:02.978Z,99.90
2023-01-18T06:25:09.009Z,99.90
2023-01-18T06:29:11.556Z,99.90
2023-01-18T06:33:14.337Z,99.90
2023-01-18T06:37:19.319Z,99.90
2023-01-18T06:41:21.703Z,99.90
2023-01-18T06:45:24.144Z,99.90
2023-01-18T06:49:27.102Z,99.90
2023-01-18T06:53:32.251Z,99.90
2023-01-18T06:57:34.781Z,99.90
2023-01-18T07:01:37.668Z,99.90
2023-01-18T07:05:40.367Z,99.90
2023-01-18T07:09:45.844Z,99.90
2023-01-18T07:13:48.398Z,99.90
2023-01-18T07:17:51.217Z,99.90
2023-01-18T07:21:53.738Z,99.90
2023-01-18T07:26:03.702Z,99.90
2023-01-18T07:30:07.564Z,99.90
2023-01-18T07:34:10.444Z,99.90
2023-01-18T07:38:13.253Z,99.90
2023-01-18T07:42:20.491Z,99.90
2023-01-18T07:46:23.102Z,99.90
2023-01-18T07:50:25.727Z,99.90
2023-01-18T07:54:28.207Z,99.90
2023-01-18T07:58:34.177Z,99.90
2023-01-18T08:02:36.713Z,99.90
2023-01-18T08:06:39.237Z,99.90
2023-01-18T08:10:42.230Z,99.90
2023-01-18T08:14:47.119Z,99.90
2023-01-18T08:18:49.862Z,99.90
2023-01-18T08:22:56.071Z,99.90
2023-01-18T08:26:58.742Z,99.90
2023-01-18T08:31:12.556Z,99.90
2023-01-18T08:35:15.150Z,99.90
2023-01-18T08:39:17.550Z,99.40
2023-01-18T08:43:20.355Z,99.10
2023-01-18T08:47:26.089Z,98.90
2023-01-18T08:51:28.434Z,98.70
2023-01-18T08:55:31.399Z,98.70
2023-01-18T08:59:36.155Z,98.80
2023-01-18T09:03:41.307Z,98.30
2023-01-18T09:07:43.871Z,98.60
2023-01-18T09:11:46.337Z,97.90
2023-01-18T09:15:48.640Z,98.10
2023-01-18T09:19:54.056Z,97.90
2023-01-18T09:23:56.620Z,98.10
2023-01-18T09:27:58.955Z,98.10
2023-01-18T09:32:01.263Z,97.80
2023-01-18T09:36:08.988Z,97.70
2023-01-18T09:40:16.526Z,97.80
2023-01-18T09:44:23.493Z,97.70
2023-01-18T09:48:31.125Z,97.50
2023-01-18T09:52:46.073Z,97.40
2023-01-18T10:01:18.059Z,98.20
2023-01-18T10:05:29.624Z,98.00
2023-01-18T10:09:39.791Z,97.50
2023-01-18T10:13:52.273Z,97.20
2023-01-18T10:17:57.393Z,97.20
2023-01-18T10:22:06.806Z,97.90
2023-01-18T10:26:17.389Z,98.60
2023-01-18T10:30:34.648Z,97.60
2023-01-18T10:34:41.946Z,98.00
2023-01-18T10:38:45.620Z,98.20
2023-01-18T10:42:53.639Z,98.30
2023-01-18T10:46:57.203Z,98.80
2023-01-18T10:51:01.479Z,98.20
2023-01-18T10:55:06.160Z,98.50
2023-01-18T10:59:26.216Z,98.50
2023-01-18T11:03:35.247Z,98.40
2023-01-18T11:07:37.784Z,99.10
2023-01-18T11:11:40.327Z,98.90
2023-01-18T11:15:45.418Z,97.00
2023-01-18T11:19:47.680Z,96.10
2023-01-18T11:23:50.313Z,95.50
2023-01-18T11:27:52.769Z,95.70
2023-01-18T11:32:02.342Z,95.90
2023-01-18T11:36:05.573Z,96.50
2023-01-18T11:40:26.143Z,96.30
2023-01-18T11:44:32.967Z,96.80
2023-01-18T11:48:42.655Z,96.80
2023-01-18T11:52:52.488Z,96.70
2023-01-18T11:56:56.270Z,97.00
2023-01-18T12:01:09.153Z,96.80
2023-01-18T12:05:29.646Z,96.80
2023-01-18T12:09:43.322Z,96.80
2023-01-18T12:13:56.046Z,96.20
2023-01-18T12:18:22.699Z,96.70
2023-01-18T12:22:56.207Z,95.40
2023-01-18T12:27:05.828Z,94.60
2023-01-18T12:31:20.708Z,94.30
2023-01-18T12:35:45.856Z,94.10
2023-01-18T12:40:08.863Z,95.30
2023-01-18T12:44:35.152Z,94.40
2023-01-18T12:48:46.468Z,93.20
2023-01-18T12:52:52.933Z,95.50
2023-01-18T12:57:00.187Z,97.10
2023-01-18T13:01:05.493Z,96.50
2023-01-18T13:05:20.217Z,97.60
2023-01-18T13:09:26.286Z,98.30
2023-01-18T13:13:32.024Z,98.40
2023-01-18T13:17:40.225Z,98.60
2023-01-18T13:22:04.362Z,98.30
2023-01-18T13:26:20.044Z,98.70
2023-01-18T13:30:26.481Z,99.00
2023-01-18T13:34:33.729Z,99.10
2023-01-18T13:38:42.038Z,99.40
2023-01-18T13:42:47.515Z,98.90
2023-01-18T13:46:57.570Z,99.20
2023-01-18T13:51:02.940Z,98.20
2023-01-18T13:55:25.080Z,97.80
2023-01-18T13:59:32.368Z,98.50
2023-01-18T14:03:43.898Z,98.70
2023-01-18T14:07:48.814Z,99.60
2023-01-18T14:11:55.143Z,98.70
2023-01-18T14:15:58.206Z,98.70
2023-01-18T14:20:37.326Z,99.00
2023-01-18T14:24:51.688Z,98.60
2023-01-18T14:28:59.769Z,98.60
2023-01-18T14:33:08.741Z,99.50
2023-01-18T14:37:30.887Z,99.90
2023-01-18T14:41:33.579Z,99.90
2023-01-18T14:45:46.734Z,99.40
2023-01-18T14:49:49.304Z,99.80
2023-01-18T14:53:56.803Z,99.90
2023-01-18T14:58:12.509Z,99.90
2023-01-18T15:02:17.598Z,99.90
2023-01-18T15:06:27.915Z,99.90
2023-01-18T15:10:33.416Z,99.90
2023-01-18T15:14:40.128Z,99.90
2023-01-18T15:18:42.797Z,99.90
2023-01-18T15:22:45.236Z,99.90
2023-01-18T15:26:52.934Z,99.90
2023-01-18T15:30:56.514Z,99.90
2023-01-18T15:35:01.785Z,99.90
2023-01-18T15:39:04.384Z,99.90
2023-01-18T15:43:20.489Z,99.90
2023-01-18T15:47:24.777Z,99.90
2023-01-18T15:51:26.832Z,99.90
2023-01-18T15:55:33.620Z,99.90
2023-01-18T15:59:41.260Z,99.90
2023-01-18T16:03:56.033Z,99.90
2023-01-18T16:08:17.855Z,99.90
2023-01-18T16:12:32.895Z,99.90
2023-01-18T16:16:38.719Z,99.90
2023-01-18T16:20:40.899Z,99.90
2023-01-18T16:24:47.389Z,99.90
2023-01-18T16:28:51.020Z,99.90
2023-01-18T16:32:55.754Z,99.90
2023-01-18T16:36:57.907Z,99.90
2023-01-18T16:40:59.968Z,99.30
2023-01-18T16:45:02.168Z,99.00
2023-01-18T16:49:11.498Z,98.80
2023-01-18T16:53:13.575Z,99.30
2023-01-18T16:57:19.674Z,99.30
2023-01-18T17:01:21.797Z,99.30
2023-01-18T17:05:27.926Z,99.70
2023-01-18T17:09:32.494Z,99.90
2023-01-18T17:13:36.836Z,99.30
2023-01-18T17:17:38.803Z,98.90
2023-01-18T17:21:45.352Z,99.10
2023-01-18T17:25:49.040Z,98.60
2023-01-18T17:29:51.101Z,98.40
2023-01-18T17:33:53.127Z,98.60
2023-01-18T17:38:05.296Z,98.00
2023-01-18T17:42:12.042Z,97.50
2023-01-18T17:46:14.524Z,97.80
2023-01-18T17:50:16.663Z,98.20
2023-01-18T17:54:21.450Z,98.20
2023-01-18T17:58:23.647Z,98.30
2023-01-18T18:02:26.045Z,96.80
2023-01-18T18:06:31.642Z,96.40
2023-01-18T18:10:36.441Z,96.90
2023-01-18T18:14:38.562Z,97.00
2023-01-18T18:18:40.615Z,97.40
2023-01-18T18:22:42.697Z,97.60
2023-01-18T18:26:47.406Z,98.30
2023-01-18T18:30:49.702Z,98.70
2023-01-18T18:34:51.691Z,98.90
2023-01-18T18:38:53.678Z,98.80
2023-01-18T18:43:02.342Z,99.30
2023-01-18T18:47:06.779Z,99.60
2023-01-18T18:51:08.913Z,99.90
2023-01-18T18:55:11.307Z,99.90
2023-01-18T18:59:15.891Z,99.90
2023-01-18T19:03:17.957Z,99.90
2023-01-18T19:07:20.004Z,99.90
2023-01-18T19:11:22.017Z,99.90
2023-01-18T19:15:26.779Z,99.90
2023-01-18T19:19:28.986Z,99.90
2023-01-18T19:23:30.980Z,99.90
2023-01-18T19:27:33.151Z,99.90
2023-01-18T19:31:38.046Z,99.90
2023-01-18T19:35:41.313Z,99.90
2023-01-18T19:39:43.276Z,99.90
2023-01-18T19:43:48.618Z,99.90
2023-01-18T19:47:53.533Z,99.90
2023-01-18T19:51:55.571Z,99.90
2023-01-18T19:56:06.987Z,99.90
2023-01-18T20:00:11.423Z,99.90
2023-01-18T20:04:16.014Z,99.90
2023-01-18T20:08:18.010Z,99.90
2023-01-18T20:12:20.004Z,99.90
2023-01-18T20:16:22.207Z,99.90
2023-01-18T20:20:32.620Z,99.90
2023-01-18T20:24:34.970Z,99.90
2023-01-18T20:28:37.403Z,99.90
2023-01-18T20:32:39.464Z,99.90
2023-01-18T20:36:44.033Z,99.90
2023-01-18T20:40:46.089Z,99.90
2023-01-18T20:44:48.087Z,99.90
2023-01-18T20:48:50.580Z,99.90
2023-01-18T20:52:55.332Z,99.90
2023-01-18T20:56:57.360Z,99.90
2023-01-18T21:01:05.068Z,99.90
2023-01-18T21:05:08.016Z,99.90
2023-01-18T21:09:12.727Z,99.90
2023-01-18T21:13:14.788Z,99.90
2023-01-18T21:17:16.805Z,99.90
2023-01-18T21:21:20.121Z,99.90
2023-01-18T21:25:25.495Z,99.90
2023-01-18T21:29:27.514Z,99.90
2023-01-18T21:33:29.800Z,99.90
2023-01-18T21:37:32.160Z,99.90
2023-01-18T21:41:36.876Z,99.90
2023-01-18T21:45:39.316Z,99.90
2023-01-18T21:54:03.500Z,99.90
2023-01-18T21:58:08.111Z,99.90
2023-01-18T22:02:10.306Z,99.90
2023-01-18T22:06:12.393Z,99.90
2023-01-18T22:10:14.533Z,99.90
2023-01-18T22:14:19.155Z,99.90
2023-01-18T22:18:21.117Z,99.90
2023-01-18T22:22:23.354Z,99.90
2023-01-18T22:26:28.282Z,99.90
2023-01-18T22:30:32.976Z,99.90
2023-01-18T22:34:34.983Z,99.90
2023-01-18T22:38:37.193Z,99.90
2023-01-18T22:42:39.168Z,99.90
2023-01-18T22:46:44.235Z,99.90
2023-01-18T22:50:51.992Z,99.90
2023-01-18T22:54:53.963Z,99.90
2023-01-18T22:58:55.948Z,99.90
2023-01-18T23:03:00.514Z,99.90
2023-01-18T23:07:02.567Z,99.90
2023-01-18T23:11:04.613Z,99.90
2023-01-18T23:15:07.703Z,99.90
2023-01-18T23:19:12.293Z,99.90
2023-01-18T23:23:14.295Z,99.90
2023-01-18T23:27:16.316Z,99.90
2023-01-18T23:31:18.676Z,99.90
2023-01-18T23:35:23.372Z,99.90
2023-01-18T23:39:25.388Z,99.90
2023-01-18T23:43:27.375Z,99.90
2023-01-18T23:47:29.362Z,99.90
2023-01-18T23:51:33.972Z,99.90
2023-01-18T23:55:36.050Z,99.90
2023-01-18T23:59:38.020Z,99.90
